Teenie Sonier — WDI2635 — position and weather

sailwx.info

Track history (hours):
 
Tides and Currents Weather Stations Pressure Air Temp Water Temp Dewpoint Dewpoint Depression Visibility Wind Speed Wind Dir Waves Ship Positions

Teenie Sonier

Owner: LeBeouf Bros. Towing, LLC, Houma, LA. More information available from US FCC via Universal Licensing System and Coast Guard Vessel Documentation Center.

Last reported at 2017-Nov-24 05:31 UTC. Time now 2017-Nov-24 05:50 UTC.
Position N 30°01' W 093°14'.

Length 26 m; draft 9.6 m.

Type: Tug. MMSI: 367680160.

Date/timePositionNaut miles runAvg speedWind from/ knotsBaromVisibWave heightAir tempDewpointWater temp
2017-Nov-24 05:31N 30°01' W 093°14'2 3.9
2017-Nov-24 05:00N 30°02' W 093°16'2 3.4
2017-Nov-24 04:31N 30°04' W 093°16'2 3.8
2017-Nov-24 04:00N 30°05' W 093°18'1 1.3
2017-Nov-24 03:31N 30°06' W 093°18'0 0.9
2017-Nov-24 03:01N 30°06' W 093°18'0 0.9
2017-Nov-24 02:30N 30°06' W 093°19'0 0.0
2017-Nov-24 02:00N 30°06' W 093°19'0 0.0
2017-Nov-24 01:31N 30°06' W 093°19'0 0.0
2017-Nov-24 01:00N 30°06' W 093°19'0 0.0
2017-Nov-24 00:30N 30°06' W 093°19'0 0.0
2017-Nov-24 00:00N 30°06' W 093°19'2 3.6
2017-Nov-23 23:30N 30°05' W 093°20'2 3.8
2017-Nov-23 23:01N 30°04' W 093°22'2 4.1
2017-Nov-23 22:30N 30°04' W 093°24'1 1.6
2017-Nov-23 22:00N 30°04' W 093°25'0 0.0
2017-Nov-23 21:30N 30°04' W 093°25'0 0.0
2017-Nov-23 21:01N 30°04' W 093°25'0 0.0
2017-Nov-23 20:30N 30°04' W 093°25'0 0.0
2017-Nov-23 20:00N 30°04' W 093°25'0 0.0
2017-Nov-23 19:30N 30°04' W 093°25'0 0.0
2017-Nov-23 19:00N 30°04' W 093°25'0 0.0
2017-Nov-23 18:31N 30°04' W 093°25'0 0.0
2017-Nov-23 18:00N 30°04' W 093°25'1 2.2
2017-Nov-23 17:30N 30°04' W 093°27'0 0.0
2017-Nov-23 17:00N 30°04' W 093°27'0 0.0
2017-Nov-23 16:30N 30°04' W 093°27'0 0.0
2017-Nov-23 16:00N 30°04' W 093°27'0 0.1
2017-Nov-23 15:30N 30°04' W 093°27'0 0.1
2017-Nov-23 15:00N 30°04' W 093°27'0 0.0
2017-Nov-23 14:30N 30°04' W 093°27'0 0.1
2017-Nov-23 14:00N 30°04' W 093°27'0 1.0
2017-Nov-23 13:30N 30°04' W 093°27'0 1.0
2017-Nov-23 13:01N 30°04' W 093°28'0 0.0
2017-Nov-23 12:30N 30°04' W 093°28'0 0.0
2017-Nov-23 12:00N 30°04' W 093°28'0 0.0
2017-Nov-23 11:30N 30°04' W 093°28'0 0.0
2017-Nov-23 11:00N 30°04' W 093°28'0 0.0
2017-Nov-23 10:31N 30°04' W 093°28'0 0.0
2017-Nov-23 10:00N 30°04' W 093°28'0 0.0
2017-Nov-23 09:30N 30°04' W 093°28'0 0.5
2017-Nov-23 09:01N 30°04' W 093°28'0 0.0
2017-Nov-23 08:30N 30°04' W 093°28'0 0.6
2017-Nov-23 08:01N 30°04' W 093°28'0 0.0
2017-Nov-23 07:30N 30°04' W 093°28'0 0.6
2017-Nov-23 07:00N 30°04' W 093°28'0 0.3
2017-Nov-23 06:30N 30°04' W 093°28'2 3.4
2017-Nov-23 06:00N 30°04' W 093°30'3 5.6
2017-Nov-23 05:30N 30°04' W 093°33'3 5.8
2017-Nov-23 05:00N 30°04' W 093°37'3 6.4
2017-Nov-23 04:30N 30°04' W 093°40'3 5.7
2017-Nov-23 04:00N 30°03' W 093°44'  
2017-Nov-20 00:30N 29°58' W 093°12'3 6.4
2017-Nov-20 00:00N 29°56' W 093°09'3 6.4
2017-Nov-19 23:30N 29°56' W 093°05'38 5.2
2017-Nov-19 16:07N 29°51' W 092°22'1 4.4
2017-Nov-19 15:54N 29°51' W 092°20'2 6.0
2017-Nov-19 15:29N 29°50' W 092°18'3 6.0
2017-Nov-19 15:01N 29°48' W 092°15'3 6.2
2017-Nov-19 14:30N 29°47' W 092°12'1 1.8
2017-Nov-19 14:00N 29°47' W 092°11'0 0.0
2017-Nov-19 13:30N 29°47' W 092°11'0 0.0
2017-Nov-19 13:00N 29°47' W 092°11'0 0.0
2017-Nov-19 12:31N 29°47' W 092°11'0 0.0
2017-Nov-19 12:00N 29°47' W 092°11'0 0.0
2017-Nov-19 11:30N 29°47' W 092°11'0 0.0
2017-Nov-19 11:00N 29°47' W 092°11'0 0.0
2017-Nov-19 10:30N 29°47' W 092°11'0 0.1
2017-Nov-19 10:00N 29°47' W 092°11'0 0.0
2017-Nov-19 09:30N 29°47' W 092°11'0 0.0
2017-Nov-19 09:00N 29°47' W 092°11'0 0.0
2017-Nov-19 08:30N 29°47' W 092°11'0 0.0
2017-Nov-19 08:00N 29°47' W 092°11'0 0.0
2017-Nov-19 07:30N 29°47' W 092°11'0 0.0
2017-Nov-19 07:00N 29°47' W 092°11'0 0.0
2017-Nov-19 06:30N 29°47' W 092°11'2 3.4
2017-Nov-19 06:00N 29°47' W 092°09'1 2.8
2017-Nov-19 05:30N 29°47' W 092°07'4 7.5
2017-Nov-19 05:00N 29°49' W 092°03'0 0.0
2017-Nov-19 04:30N 29°49' W 092°03'0 0.0
2017-Nov-19 04:00N 29°49' W 092°03'0 0.0
2017-Nov-19 03:30N 29°49' W 092°03'0 0.3
2017-Nov-19 03:00N 29°49' W 092°03'0 0.0
2017-Nov-19 02:30N 29°49' W 092°03'1 1.5
2017-Nov-19 02:00N 29°49' W 092°03'3 6.7
2017-Nov-19 01:30N 29°50' W 091°59'62 5.9
2017-Nov-18 14:55N 29°32' W 090°50'3 7.5
2017-Nov-18 14:30N 29°32' W 090°47'3 5.2
2017-Nov-18 14:00N 29°34' W 090°44'2 4.3
2017-Nov-18 13:30N 29°35' W 090°43'2 3.2
2017-Nov-18 13:00N 29°37' W 090°42'2 3.1
2017-Nov-18 12:30N 29°36' W 090°40'3 5.3
2017-Nov-18 12:00N 29°35' W 090°37'1 2.5
2017-Nov-18 11:30N 29°35' W 090°36'0 0.0
2017-Nov-18 11:00N 29°35' W 090°36'0 0.1
2017-Nov-18 10:30N 29°35' W 090°36'0 0.1
2017-Nov-18 10:00N 29°35' W 090°36'0 0.0
2017-Nov-18 09:30N 29°35' W 090°36'0 0.1
2017-Nov-18 09:00N 29°35' W 090°36'2 4.5
2017-Nov-18 08:30N 29°34' W 090°33'3 6.6
2017-Nov-18 08:00N 29°34' W 090°30'  
2017-Nov-15 04:55N 29°57' W 090°23'  
Track history (hours):
 
Tides and Currents Weather Stations Pressure Air Temp Water Temp Dewpoint Dewpoint Depression Visibility Wind Speed Wind Dir Waves Ship Positions

Teenie Sonier

Owner: LeBeouf Bros. Towing, LLC, Houma, LA. More information available from US FCC via Universal Licensing System and Coast Guard Vessel Documentation Center.

Last reported at 2017-Nov-24 05:31 UTC. Time now 2017-Nov-24 05:50 UTC.
Position N 30°01' W 093°14'.

Length 26 m; draft 9.6 m.

Type: Tug. MMSI: 367680160.

Date/timePositionNaut miles runAvg speedWind from/ knotsBaromVisibWave heightAir tempDewpointWater temp
2017-Nov-24 05:31N 30°01' W 093°14'2 3.9
2017-Nov-24 05:00N 30°02' W 093°16'2 3.4
2017-Nov-24 04:31N 30°04' W 093°16'2 3.8
2017-Nov-24 04:00N 30°05' W 093°18'1 1.3
2017-Nov-24 03:31N 30°06' W 093°18'0 0.9
2017-Nov-24 03:01N 30°06' W 093°18'0 0.9
2017-Nov-24 02:30N 30°06' W 093°19'0 0.0
2017-Nov-24 02:00N 30°06' W 093°19'0 0.0
2017-Nov-24 01:31N 30°06' W 093°19'0 0.0
2017-Nov-24 01:00N 30°06' W 093°19'0 0.0
2017-Nov-24 00:30N 30°06' W 093°19'0 0.0
2017-Nov-24 00:00N 30°06' W 093°19'2 3.6
2017-Nov-23 23:30N 30°05' W 093°20'2 3.8
2017-Nov-23 23:01N 30°04' W 093°22'2 4.1
2017-Nov-23 22:30N 30°04' W 093°24'1 1.6
2017-Nov-23 22:00N 30°04' W 093°25'0 0.0
2017-Nov-23 21:30N 30°04' W 093°25'0 0.0
2017-Nov-23 21:01N 30°04' W 093°25'0 0.0
2017-Nov-23 20:30N 30°04' W 093°25'0 0.0
2017-Nov-23 20:00N 30°04' W 093°25'0 0.0
2017-Nov-23 19:30N 30°04' W 093°25'0 0.0
2017-Nov-23 19:00N 30°04' W 093°25'0 0.0
2017-Nov-23 18:31N 30°04' W 093°25'0 0.0
2017-Nov-23 18:00N 30°04' W 093°25'1 2.2
2017-Nov-23 17:30N 30°04' W 093°27'0 0.0
2017-Nov-23 17:00N 30°04' W 093°27'0 0.0
2017-Nov-23 16:30N 30°04' W 093°27'0 0.0
2017-Nov-23 16:00N 30°04' W 093°27'0 0.1
2017-Nov-23 15:30N 30°04' W 093°27'0 0.1
2017-Nov-23 15:00N 30°04' W 093°27'0 0.0
2017-Nov-23 14:30N 30°04' W 093°27'0 0.1
2017-Nov-23 14:00N 30°04' W 093°27'0 1.0
2017-Nov-23 13:30N 30°04' W 093°27'0 1.0
2017-Nov-23 13:01N 30°04' W 093°28'0 0.0
2017-Nov-23 12:30N 30°04' W 093°28'0 0.0
2017-Nov-23 12:00N 30°04' W 093°28'0 0.0
2017-Nov-23 11:30N 30°04' W 093°28'0 0.0
2017-Nov-23 11:00N 30°04' W 093°28'0 0.0
2017-Nov-23 10:31N 30°04' W 093°28'0 0.0
2017-Nov-23 10:00N 30°04' W 093°28'0 0.0
2017-Nov-23 09:30N 30°04' W 093°28'0 0.5
2017-Nov-23 09:01N 30°04' W 093°28'0 0.0
2017-Nov-23 08:30N 30°04' W 093°28'0 0.6
2017-Nov-23 08:01N 30°04' W 093°28'0 0.0
2017-Nov-23 07:30N 30°04' W 093°28'0 0.6
2017-Nov-23 07:00N 30°04' W 093°28'0 0.3
2017-Nov-23 06:30N 30°04' W 093°28'2 3.4
2017-Nov-23 06:00N 30°04' W 093°30'3 5.6
2017-Nov-23 05:30N 30°04' W 093°33'3 5.8
2017-Nov-23 05:00N 30°04' W 093°37'3 6.4
2017-Nov-23 04:30N 30°04' W 093°40'3 5.7
2017-Nov-23 04:00N 30°03' W 093°44'  
2017-Nov-20 00:30N 29°58' W 093°12'3 6.4
2017-Nov-20 00:00N 29°56' W 093°09'3 6.4
2017-Nov-19 23:30N 29°56' W 093°05'38 5.2
2017-Nov-19 16:07N 29°51' W 092°22'1 4.4
2017-Nov-19 15:54N 29°51' W 092°20'2 6.0
2017-Nov-19 15:29N 29°50' W 092°18'3 6.0
2017-Nov-19 15:01N 29°48' W 092°15'3 6.2
2017-Nov-19 14:30N 29°47' W 092°12'1 1.8
2017-Nov-19 14:00N 29°47' W 092°11'0 0.0
2017-Nov-19 13:30N 29°47' W 092°11'0 0.0
2017-Nov-19 13:00N 29°47' W 092°11'0 0.0
2017-Nov-19 12:31N 29°47' W 092°11'0 0.0
2017-Nov-19 12:00N 29°47' W 092°11'0 0.0
2017-Nov-19 11:30N 29°47' W 092°11'0 0.0
2017-Nov-19 11:00N 29°47' W 092°11'0 0.0
2017-Nov-19 10:30N 29°47' W 092°11'0 0.1
2017-Nov-19 10:00N 29°47' W 092°11'0 0.0
2017-Nov-19 09:30N 29°47' W 092°11'0 0.0
2017-Nov-19 09:00N 29°47' W 092°11'0 0.0
2017-Nov-19 08:30N 29°47' W 092°11'0 0.0
2017-Nov-19 08:00N 29°47' W 092°11'0 0.0
2017-Nov-19 07:30N 29°47' W 092°11'0 0.0
2017-Nov-19 07:00N 29°47' W 092°11'0 0.0
2017-Nov-19 06:30N 29°47' W 092°11'2 3.4
2017-Nov-19 06:00N 29°47' W 092°09'1 2.8
2017-Nov-19 05:30N 29°47' W 092°07'4 7.5
2017-Nov-19 05:00N 29°49' W 092°03'0 0.0
2017-Nov-19 04:30N 29°49' W 092°03'0 0.0
2017-Nov-19 04:00N 29°49' W 092°03'0 0.0
2017-Nov-19 03:30N 29°49' W 092°03'0 0.3
2017-Nov-19 03:00N 29°49' W 092°03'0 0.0
2017-Nov-19 02:30N 29°49' W 092°03'1 1.5
2017-Nov-19 02:00N 29°49' W 092°03'3 6.7
2017-Nov-19 01:30N 29°50' W 091°59'62 5.9
2017-Nov-18 14:55N 29°32' W 090°50'3 7.5
2017-Nov-18 14:30N 29°32' W 090°47'3 5.2
2017-Nov-18 14:00N 29°34' W 090°44'2 4.3
2017-Nov-18 13:30N 29°35' W 090°43'2 3.2
2017-Nov-18 13:00N 29°37' W 090°42'2 3.1
2017-Nov-18 12:30N 29°36' W 090°40'3 5.3
2017-Nov-18 12:00N 29°35' W 090°37'1 2.5
2017-Nov-18 11:30N 29°35' W 090°36'0 0.0
2017-Nov-18 11:00N 29°35' W 090°36'0 0.1
2017-Nov-18 10:30N 29°35' W 090°36'0 0.1
2017-Nov-18 10:00N 29°35' W 090°36'0 0.0
2017-Nov-18 09:30N 29°35' W 090°36'0 0.1
2017-Nov-18 09:00N 29°35' W 090°36'2 4.5
2017-Nov-18 08:30N 29°34' W 090°33'3 6.6
2017-Nov-18 08:00N 29°34' W 090°30'  
2017-Nov-15 04:55N 29°57' W 090°23'  

Dump ship's entire track history